Time;durP1;ratioP1;P1;durP2;ratioP2;P2;SDS_P1;SDS_P2;PMS_P1;PMS_P2;Temp;Humidity;BMP_temperature;BMP_pressure;BME280_temperature;BME280_humidity;BME280_pressure;Samples;Min_cycle;Max_cycle;Signal;HPM_P1;HPM_P2
2022/11/18 00:01:33;;;;;;;5.65;4.63;;;;;;;21.51;42.91;99688.25;5090823;28;20517;-67
2022/11/18 00:03:59;;;;;;;6.15;4.75;;;;;;;21.52;42.76;99697.00;5090113;28;20044;-67
2022/11/18 00:06:26;;;;;;;9.68;4.88;;;;;;;21.52;42.79;99697.00;5096130;28;20137;-67
2022/11/18 00:08:53;;;;;;;6.28;4.93;;;;;;;21.49;42.84;99698.25;5091549;28;20028;-67
2022/11/18 00:14:18;;;;;;;5.78;5.10;;;;;;;21.46;42.76;99711.94;5096106;28;20589;-67
2022/11/18 00:17:00;;;;;;;6.60;4.90;;;;;;;21.47;43.06;99718.03;5095325;28;20050;-66
2022/11/18 00:19:30;;;;;;;5.70;4.53;;;;;;;21.47;42.63;99721.50;5094433;28;20087;-67
2022/11/18 00:21:56;;;;;;;6.13;4.70;;;;;;;21.44;42.80;99724.56;5091011;28;20031;-67
2022/11/18 00:24:23;;;;;;;5.95;4.70;;;;;;;21.41;43.02;99727.66;5092810;27;20096;-67
2022/11/18 00:26:48;;;;;;;6.68;5.10;;;;;;;21.39;42.95;99727.88;5098558;28;20087;-67
2022/11/18 00:29:15;;;;;;;6.05;4.53;;;;;;;21.40;43.22;99731.34;5091913;28;20757;-66
2022/11/18 00:31:40;;;;;;;6.10;4.82;;;;;;;21.38;42.95;99733.41;5096385;28;20035;-67
2022/11/18 00:34:06;;;;;;;6.90;5.28;;;;;;;21.36;43.44;99733.63;5097923;28;20090;-67
2022/11/18 00:36:32;;;;;;;9.07;5.20;;;;;;;21.35;43.12;99734.63;5093742;28;20043;-67
2022/11/18 00:38:57;;;;;;;6.78;4.30;;;;;;;21.34;43.35;99735.63;5092592;28;20070;-67
2022/11/18 00:41:23;;;;;;;7.20;5.25;;;;;;;21.32;43.30;99736.88;5097489;28;20044;-66
2022/11/18 00:43:49;;;;;;;7.60;5.32;;;;;;;21.30;43.43;99731.81;5090484;28;20039;-67
2022/11/18 00:46:14;;;;;;;6.65;5.35;;;;;;;21.30;43.40;99728.34;5092584;28;20066;-67
2022/11/18 00:48:40;;;;;;;6.60;5.40;;;;;;;21.31;43.05;99737.91;5095561;28;20043;-67
2022/11/18 00:51:14;;;;;;;7.55;5.03;;;;;;;21.27;43.28;99734.09;5096742;28;20048;-67
2022/11/18 00:53:40;;;;;;;6.72;5.20;;;;;;;21.30;43.19;99746.88;5098000;28;20701;-67
2022/11/18 00:56:06;;;;;;;7.82;5.18;;;;;;;21.24;43.40;99739.78;5096031;28;20035;-67
2022/11/18 00:58:32;;;;;;;7.68;5.45;;;;;;;21.28;43.43;99748.94;5093928;28;20043;-67
2022/11/18 01:00:58;;;;;;;6.15;4.90;;;;;;;21.30;43.28;99762.78;5095242;28;20040;-67
2022/11/18 01:03:24;;;;;;;6.70;5.20;;;;;;;21.26;43.52;99764.25;5099474;28;20032;-67
2022/11/18 01:05:50;;;;;;;6.47;5.07;;;;;;;21.26;43.44;99767.69;5092008;27;20047;-67
2022/11/18 01:08:18;;;;;;;7.82;5.82;;;;;;;21.27;43.22;99758.72;5095361;28;20051;-67
2022/11/18 01:10:43;;;;;;;6.18;4.88;;;;;;;21.24;43.52;99767.09;5093817;28;20036;-67
2022/11/18 01:13:19;;;;;;;8.95;5.60;;;;;;;21.25;43.39;99763.44;5096842;28;20491;-67
2022/11/18 01:15:56;;;;;;;7.65;5.50;;;;;;;21.27;43.50;99763.22;5096677;28;20039;-67
2022/11/18 01:18:25;;;;;;;7.10;5.63;;;;;;;21.27;43.40;99773.81;5096413;28;20055;-67
2022/11/18 01:20:50;;;;;;;8.30;5.97;;;;;;;21.27;43.18;99781.75;5097566;28;20039;-67
2022/11/18 01:23:17;;;;;;;7.70;5.55;;;;;;;21.20;43.63;99786.25;5094621;28;20110;-66
2022/11/18 01:25:45;;;;;;;7.57;5.20;;;;;;;21.23;43.21;99786.63;5093471;28;20024;-67
2022/11/18 01:28:11;;;;;;;5.82;4.93;;;;;;;21.22;43.36;99784.19;5090440;28;20043;-65
2022/11/18 01:30:38;;;;;;;6.13;4.93;;;;;;;21.23;43.27;99791.13;5092803;28;20042;-67
2022/11/18 01:33:04;;;;;;;7.55;5.68;;;;;;;21.21;43.48;99795.81;5085796;28;20118;-67
2022/11/18 01:35:41;;;;;;;6.25;4.90;;;;;;;21.24;43.42;99793.56;5093357;28;20070;-67
2022/11/18 01:38:09;;;;;;;6.75;5.25;;;;;;;21.20;43.42;99795.00;5090661;28;20085;-67
2022/11/18 01:40:36;;;;;;;6.70;5.22;;;;;;;21.21;43.52;99795.81;5088199;28;20526;-67
2022/11/18 01:43:04;;;;;;;8.93;5.25;;;;;;;21.21;43.32;99809.88;5091844;28;20393;-67
2022/11/18 01:45:40;;;;;;;7.05;5.22;;;;;;;21.21;43.30;99815.16;5091402;28;20035;-67
2022/11/18 01:48:30;;;;;;;6.45;5.55;;;;;;;21.20;43.71;99810.09;5093910;28;20036;-67
2022/11/18 01:51:07;;;;;;;6.75;5.63;;;;;;;21.18;43.51;99807.63;5090705;28;20115;-67
2022/11/18 01:53:37;;;;;;;6.93;5.60;;;;;;;21.21;43.39;99811.69;5089783;28;20121;-67
2022/11/18 01:56:11;;;;;;;8.70;5.43;;;;;;;21.20;43.58;99815.38;5086889;28;20057;-67
2022/11/18 01:58:53;;;;;;;6.72;5.38;;;;;;;21.18;43.64;99817.41;5088650;28;20031;-67
2022/11/18 02:01:18;;;;;;;6.93;5.30;;;;;;;21.20;43.34;99813.53;5088030;28;20131;-67
2022/11/18 02:03:45;;;;;;;7.10;5.22;;;;;;;21.20;43.44;99821.47;5089414;28;20035;-66
2022/11/18 02:06:12;;;;;;;6.55;5.13;;;;;;;21.20;43.21;99824.13;5093792;28;20035;-67
2022/11/18 02:08:39;;;;;;;6.50;5.45;;;;;;;21.16;43.57;99819.44;5086282;28;20031;-67
2022/11/18 02:11:49;;;;;;;7.60;5.95;;;;;;;21.17;43.42;99826.38;5091415;28;20027;-67
2022/11/18 02:13:55;;;;;;;8.13;5.63;;;;;;;21.16;43.64;99828.19;5089585;28;20054;-66
2022/11/18 02:16:31;;;;;;;6.95;5.57;;;;;;;21.16;43.67;99835.34;5085795;28;20035;-67
2022/11/18 02:19:03;;;;;;;6.25;5.32;;;;;;;21.16;43.52;99841.44;5090037;28;20518;-67
2022/11/18 02:21:59;;;;;;;6.20;5.60;;;;;;;21.17;43.38;99840.41;5086848;28;20577;-67
2022/11/18 02:25:03;;;;;;;7.32;5.10;;;;;;;21.12;43.64;99838.41;5087006;28;20054;-67
2022/11/18 02:28:06;;;;;;;6.43;5.45;;;;;;;21.17;43.56;99847.53;5085388;28;20050;-67
2022/11/18 02:30:40;;;;;;;7.45;5.28;;;;;;;21.17;43.55;99848.34;5088061;28;20603;-67
2022/11/18 02:33:16;;;;;;;6.88;5.18;;;;;;;21.14;43.38;99851.44;5086435;28;20027;-67
2022/11/18 02:35:45;;;;;;;7.93;5.32;;;;;;;21.18;43.33;99846.53;5091956;28;20042;-67
2022/11/18 02:38:30;;;;;;;8.20;5.20;;;;;;;21.17;43.70;99856.28;5092156;28;20080;-67
2022/11/18 02:41:03;;;;;;;6.90;5.35;;;;;;;21.16;43.71;99859.97;5090012;28;20027;-67
2022/11/18 02:43:34;;;;;;;7.13;5.30;;;;;;;21.18;43.59;99862.41;5094141;28;20088;-67
2022/11/18 02:46:05;;;;;;;8.02;5.55;;;;;;;21.15;43.62;99861.00;5090889;28;20118;-67
2022/11/18 02:48:34;;;;;;;7.45;4.97;;;;;;;21.15;43.53;99863.66;5091071;28;20059;-66
2022/11/18 02:51:03;;;;;;;8.35;5.88;;;;;;;21.16;43.58;99869.75;5092793;28;20047;-66
2022/11/18 02:53:32;;;;;;;6.33;5.33;;;;;;;21.13;43.37;99866.50;5088985;28;20027;-66
2022/11/18 02:56:00;;;;;;;9.50;5.63;;;;;;;21.12;43.44;99870.19;5085222;28;20047;-67
2022/11/18 02:58:26;;;;;;;7.43;5.60;;;;;;;21.12;43.70;99869.38;5088782;28;20449;-66
2022/11/18 03:00:53;;;;;;;9.70;5.63;;;;;;;21.12;43.55;99861.41;5090587;28;20043;-66
2022/11/18 03:03:25;;;;;;;7.15;5.40;;;;;;;21.15;43.59;99876.06;5094156;28;20039;-67
2022/11/18 03:06:02;;;;;;;8.30;5.43;;;;;;;21.12;43.62;99875.47;5090617;28;20028;-67
2022/11/18 03:08:48;;;;;;;6.72;5.28;;;;;;;21.12;43.67;99875.47;5091135;28;20158;-67
2022/11/18 03:11:21;;;;;;;8.30;5.60;;;;;;;21.12;43.43;99886.06;5085103;28;20057;-67
2022/11/18 03:14:13;;;;;;;7.10;5.53;;;;;;;21.13;43.63;99884.22;5089216;28;20038;-67
2022/11/18 03:16:47;;;;;;;8.73;5.57;;;;;;;21.12;43.53;99891.34;5086994;28;20079;-67
2022/11/18 03:19:23;;;;;;;7.78;5.25;;;;;;;21.12;43.53;99888.72;5090775;28;20961;-67
2022/11/18 03:22:18;;;;;;;6.55;4.95;;;;;;;21.12;43.65;99895.84;5091516;28;20070;-66
2022/11/18 03:24:55;;;;;;;7.32;5.68;;;;;;;21.13;43.53;99895.63;5083728;28;20100;-66
2022/11/18 03:27:29;;;;;;;6.82;4.95;;;;;;;21.11;43.35;99889.72;5089484;28;20031;-67
2022/11/18 03:30:03;;;;;;;7.45;5.68;;;;;;;21.12;43.81;99901.13;5091004;28;20027;-67
2022/11/18 03:32:31;;;;;;;6.88;5.10;;;;;;;21.08;43.61;99892.00;5087474;28;20386;-66
2022/11/18 03:35:02;;;;;;;9.57;5.20;;;;;;;21.12;43.49;99909.88;5090077;28;20030;-67
2022/11/18 03:37:32;;;;;;;7.30;5.30;;;;;;;21.12;43.47;99906.44;5086396;28;20040;-67
2022/11/18 03:40:05;;;;;;;7.10;5.43;;;;;;;21.09;43.62;99907.66;5086693;28;20032;-67
2022/11/18 03:42:40;;;;;;;7.15;5.63;;;;;;;21.11;43.61;99915.41;5084615;28;20028;-67
2022/11/18 03:45:24;;;;;;;7.97;5.15;;;;;;;21.09;43.59;99918.25;5087144;28;20494;-67
2022/11/18 03:48:08;;;;;;;7.45;5.35;;;;;;;21.12;43.59;99920.47;5087352;28;20038;-67
2022/11/18 03:50:41;;;;;;;7.40;5.43;;;;;;;21.10;43.48;99921.72;5083545;28;20061;-67
2022/11/18 03:53:08;;;;;;;7.28;5.43;;;;;;;21.09;43.63;99914.78;5083784;28;20035;-67
2022/11/18 03:55:41;;;;;;;7.05;5.30;;;;;;;21.10;43.48;99916.41;5083534;28;20023;-67
2022/11/18 03:58:13;;;;;;;6.75;5.15;;;;;;;21.10;43.74;99933.13;5089462;28;20044;-67
2022/11/18 04:00:43;;;;;;;7.25;5.63;;;;;;;21.07;43.82;99917.66;5085525;28;20046;-67
2022/11/18 04:03:09;;;;;;;7.30;5.13;;;;;;;21.08;43.69;99929.06;5087573;28;22046;-67
2022/11/18 04:05:39;;;;;;;7.25;5.35;;;;;;;21.11;43.42;99939.22;5080733;28;20036;-67
2022/11/18 04:08:12;;;;;;;6.75;5.07;;;;;;;21.09;43.61;99939.44;5084383;28;20035;-67
2022/11/18 04:10:45;;;;;;;7.35;5.20;;;;;;;21.08;43.48;99948.41;5083437;28;20088;-67
2022/11/18 04:13:31;;;;;;;6.63;5.22;;;;;;;21.09;43.45;99946.56;5087777;28;20039;-66
2022/11/18 04:15:57;;;;;;;6.50;4.97;;;;;;;21.09;43.80;99951.84;5089750;28;20442;-67
2022/11/18 04:18:23;;;;;;;7.75;5.53;;;;;;;21.10;43.70;99956.13;5084210;28;20046;-67
2022/11/18 04:20:48;;;;;;;7.82;5.05;;;;;;;21.08;43.45;99955.53;5089330;28;20038;-67
2022/11/18 04:23:14;;;;;;;7.50;5.50;;;;;;;21.10;43.81;99956.94;5088816;28;20051;-67
2022/11/18 04:25:39;;;;;;;8.18;5.70;;;;;;;21.04;44.13;99957.78;5091544;28;20039;-67
2022/11/18 04:28:05;;;;;;;7.05;5.07;;;;;;;21.03;43.78;99964.09;5092326;28;20221;-67
2022/11/18 04:30:31;;;;;;;9.07;5.90;;;;;;;21.09;43.50;99971.19;5090469;28;20048;-67
2022/11/18 04:32:57;;;;;;;6.93;5.50;;;;;;;21.04;43.64;99965.72;5088236;28;20031;-68
2022/11/18 04:35:23;;;;;;;9.80;5.50;;;;;;;21.05;43.50;99967.34;5092500;28;20668;-67
2022/11/18 04:37:48;;;;;;;7.90;5.00;;;;;;;21.06;43.50;99981.41;5090118;28;20582;-66
2022/11/18 04:40:14;;;;;;;8.00;5.32;;;;;;;21.08;43.44;99979.34;5090188;28;20063;-67
2022/11/18 04:42:39;;;;;;;7.07;5.28;;;;;;;21.07;43.69;99980.38;5093921;28;20097;-67
2022/11/18 04:45:06;;;;;;;9.50;5.95;;;;;;;21.07;43.57;99988.31;5092379;28;20077;-66
2022/11/18 04:47:31;;;;;;;7.68;5.43;;;;;;;21.03;43.47;99977.34;5089277;28;20092;-67
2022/11/18 04:49:57;;;;;;;7.80;5.47;;;;;;;21.05;43.50;99988.53;5089678;28;20554;-67
2022/11/18 04:52:22;;;;;;;6.13;5.10;;;;;;;21.03;43.72;99985.28;5092648;28;20036;-67
2022/11/18 04:54:47;;;;;;;8.18;5.15;;;;;;;21.07;43.63;99996.25;5095231;28;20039;-67
2022/11/18 04:57:13;;;;;;;7.22;5.88;;;;;;;21.06;43.58;99997.28;5095274;28;20040;-67
2022/11/18 04:59:39;;;;;;;6.38;4.90;;;;;;;21.04;43.62;99991.38;5095306;28;20031;-66
2022/11/18 05:02:04;;;;;;;7.15;5.18;;;;;;;21.03;43.68;99995.84;5089525;28;20553;-67
2022/11/18 05:04:33;;;;;;;8.30;4.97;;;;;;;21.04;43.44;100000.13;5093102;28;20477;-67
2022/11/18 05:07:00;;;;;;;8.50;6.57;;;;;;;21.02;43.48;99999.53;5086677;28;21378;-67
2022/11/18 05:09:26;;;;;;;6.43;5.47;;;;;;;21.03;43.68;100005.63;5090195;28;20028;-67
2022/11/18 05:14:36;;;;;;;7.18;4.97;;;;;;;21.04;43.65;100007.25;5092001;28;20036;-67
2022/11/18 05:17:06;;;;;;;6.20;4.55;;;;;;;21.02;43.56;100009.31;5091008;28;20054;-65
2022/11/18 05:19:31;;;;;;;10.98;5.18;;;;;;;20.99;43.67;100007.84;5094673;28;20122;-67
2022/11/18 05:21:57;;;;;;;5.90;4.80;;;;;;;21.00;43.57;100009.47;5085674;28;20043;-69
2022/11/18 05:24:23;;;;;;;7.28;4.82;;;;;;;20.99;43.77;100007.84;5090218;28;20044;-67
2022/11/18 05:26:52;;;;;;;6.63;4.82;;;;;;;21.01;43.82;100012.97;5088209;28;20100;-67
2022/11/18 05:29:19;;;;;;;7.10;5.28;;;;;;;21.00;43.58;100017.44;5089889;28;20044;-67
2022/11/18 05:31:45;;;;;;;6.70;5.03;;;;;;;21.00;43.61;100020.06;5089827;28;20571;-66
2022/11/18 05:34:12;;;;;;;7.13;5.57;;;;;;;21.01;43.64;100023.56;5089269;28;20535;-67
2022/11/18 05:36:37;;;;;;;7.20;4.60;;;;;;;20.99;43.50;100026.38;5088276;28;20042;-67
2022/11/18 05:39:03;;;;;;;5.78;4.68;;;;;;;21.00;43.60;100029.84;5096603;28;20031;-67
2022/11/18 05:44:13;;;;;;;7.07;5.03;;;;;;;21.00;43.76;100030.66;5089771;28;20040;-67
2022/11/18 05:46:39;;;;;;;7.50;5.00;;;;;;;21.00;43.46;100037.78;5090375;28;20039;-67
2022/11/18 05:49:05;;;;;;;7.28;5.22;;;;;;;20.94;43.69;100038.63;5087366;28;20032;-67
2022/11/18 05:51:30;;;;;;;6.47;5.10;;;;;;;21.00;43.72;100045.72;5088782;28;20863;-66
2022/11/18 05:53:56;;;;;;;7.88;5.20;;;;;;;21.01;43.51;100044.75;5089968;28;20133;-67
2022/11/18 05:56:27;;;;;;;9.30;5.63;;;;;;;20.99;43.76;100044.91;5085369;28;20035;-67
2022/11/18 05:58:52;;;;;;;7.40;5.60;;;;;;;21.00;43.62;100051.03;5082058;28;20058;-67
2022/11/18 06:01:35;;;;;;;6.10;5.05;;;;;;;20.98;43.70;100053.88;5085373;28;20031;-67
2022/11/18 06:04:03;;;;;;;7.63;5.30;;;;;;;20.94;43.50;100055.31;5085155;28;20727;-66
2022/11/18 06:06:29;;;;;;;9.00;5.13;;;;;;;20.96;43.57;100066.50;5086671;28;20144;-67
2022/11/18 06:09:05;;;;;;;7.35;5.22;;;;;;;20.96;43.56;100069.16;5090585;28;20044;-67
2022/11/18 06:11:47;;;;;;;7.43;5.00;;;;;;;20.96;43.54;100066.50;5084932;28;20517;-67
2022/11/18 06:14:24;;;;;;;6.80;4.70;;;;;;;20.87;43.60;100061.63;5084705;28;20119;-67
2022/11/18 06:16:54;;;;;;;6.45;5.00;;;;;;;20.99;43.56;100078.50;5095945;27;20045;-67
2022/11/18 06:19:21;;;;;;;8.38;5.68;;;;;;;20.98;43.47;100079.53;5093021;28;20055;-67
2022/11/18 06:21:47;;;;;;;7.15;5.20;;;;;;;20.98;43.48;100085.63;5089787;28;20031;-67
2022/11/18 06:24:13;;;;;;;7.88;5.28;;;;;;;20.95;43.75;100083.41;5089847;28;20050;-66
2022/11/18 06:26:40;;;;;;;7.50;5.32;;;;;;;20.97;43.55;100081.38;5085794;28;20047;-68
2022/11/18 06:29:08;;;;;;;6.88;5.50;;;;;;;20.97;43.79;100094.59;5087289;28;20619;-66
2022/11/18 06:31:34;;;;;;;8.55;5.82;;;;;;;20.95;43.98;100087.88;5090595;28;20035;-67
2022/11/18 06:34:00;;;;;;;7.25;5.10;;;;;;;20.96;43.65;100111.50;5090782;28;20046;-67
2022/11/18 06:36:25;;;;;;;7.72;5.22;;;;;;;20.96;43.87;100110.69;5090907;28;20405;-67
2022/11/18 06:38:51;;;;;;;7.70;5.25;;;;;;;20.98;43.73;100113.94;5091656;28;20126;-67
2022/11/18 06:41:16;;;;;;;7.00;4.38;;;;;;;20.96;43.69;100119.44;5087706;28;20036;-66
2022/11/18 06:43:42;;;;;;;7.43;5.15;;;;;;;20.96;43.79;100124.72;5091356;28;20044;-67
2022/11/18 06:48:58;;;;;;;;;;;;;;;20.97;43.93;100138.78;5088550;28;20092;-66
2022/11/18 06:51:24;;;;;;;6.35;5.03;;;;;;;20.98;43.94;100143.06;5086005;28;19932;-67
2022/11/18 06:53:49;;;;;;;6.38;4.90;;;;;;;20.96;44.10;100143.25;5087642;28;21025;-67
2022/11/18 06:56:17;;;;;;;7.53;5.30;;;;;;;20.96;43.83;100145.91;5086252;28;20040;-67
2022/11/18 06:58:43;;;;;;;7.75;4.85;;;;;;;20.98;43.82;100151.00;5080560;28;20100;-67
2022/11/18 07:01:18;;;;;;;8.43;4.88;;;;;;;20.97;43.77;100155.47;5084588;28;20040;-67
2022/11/18 07:03:45;;;;;;;6.10;4.40;;;;;;;20.98;43.94;100157.09;5086224;28;20511;-67
2022/11/18 07:06:14;;;;;;;6.43;4.90;;;;;;;20.93;44.04;100164.84;5088940;28;20138;-67
2022/11/18 07:08:40;;;;;;;5.82;4.63;;;;;;;20.97;44.04;100168.72;5090019;28;20108;-67
2022/11/18 07:11:08;;;;;;;7.75;5.07;;;;;;;20.98;43.71;100172.97;5086950;28;20036;-67
2022/11/18 07:13:34;;;;;;;6.28;4.68;;;;;;;20.97;43.75;100186.41;5089518;28;20035;-67
2022/11/18 07:16:04;;;;;;;6.00;4.60;;;;;;;20.99;43.77;100195.78;5093106;28;20036;-67
2022/11/18 07:18:31;;;;;;;;;;;;;;;20.97;43.78;100189.06;5088237;28;20071;-67
2022/11/18 07:20:56;;;;;;;6.13;4.75;;;;;;;20.87;43.98;100168.31;5086719;28;19915;-67
2022/11/18 07:23:22;;;;;;;6.72;5.07;;;;;;;20.99;43.58;100187.03;5087223;28;20064;-66
2022/11/18 07:25:47;;;;;;;6.78;5.00;;;;;;;20.94;44.03;100187.66;5089511;28;20043;-67
2022/11/18 07:28:13;;;;;;;9.75;4.95;;;;;;;20.97;43.76;100192.53;5090989;28;20443;-67
2022/11/18 07:30:38;;;;;;;6.82;4.43;;;;;;;20.96;43.49;100193.53;5090787;28;20032;-66
2022/11/18 07:33:04;;;;;;;7.55;4.72;;;;;;;20.96;43.82;100190.91;5082850;28;20036;-67
2022/11/18 07:35:29;;;;;;;8.00;4.60;;;;;;;20.96;43.32;100198.84;5089728;28;20043;-67
2022/11/18 07:37:54;;;;;;;6.10;4.53;;;;;;;20.98;43.97;100196.00;5091691;28;20046;-67
2022/11/18 07:40:20;;;;;;;6.47;5.00;;;;;;;20.99;43.90;100197.63;5091890;28;20425;-67
2022/11/18 07:42:45;;;;;;;7.20;4.72;;;;;;;20.98;43.99;100201.28;5084071;28;20056;-67
2022/11/18 07:45:22;;;;;;;7.20;4.53;;;;;;;20.97;44.12;100207.59;5088010;28;20042;-67
2022/11/18 07:47:48;;;;;;;7.20;5.20;;;;;;;20.97;43.92;100218.19;5082268;28;20035;-67
2022/11/18 07:50:13;;;;;;;7.85;4.95;;;;;;;20.99;44.01;100224.91;5085116;28;20039;-66
2022/11/18 07:52:39;;;;;;;7.22;4.75;;;;;;;20.99;44.06;100234.69;5089871;28;20080;-67
2022/11/18 07:55:04;;;;;;;6.88;4.25;;;;;;;20.98;44.02;100227.75;5081014;28;20043;-67
2022/11/18 07:57:30;;;;;;;8.40;5.03;;;;;;;20.96;43.96;100227.97;5087474;28;20142;-67
2022/11/18 07:59:55;;;;;;;7.82;5.03;;;;;;;20.96;44.13;100235.91;5077220;28;20043;-67
2022/11/18 08:02:21;;;;;;;8.07;5.35;;;;;;;20.97;43.86;100237.53;5084359;28;20071;-67
2022/11/18 08:04:46;;;;;;;6.40;4.80;;;;;;;20.99;43.75;100235.50;5080470;28;20040;-68
2022/11/18 08:07:12;;;;;;;7.38;4.60;;;;;;;21.00;43.87;100242.41;5085332;28;20047;-67
2022/11/18 08:09:38;;;;;;;6.63;4.78;;;;;;;20.97;44.18;100257.88;5088948;28;20131;-66
2022/11/18 08:12:04;;;;;;;7.22;5.20;;;;;;;20.97;44.15;100252.59;5082849;28;20024;-66
2022/11/18 08:14:29;;;;;;;7.03;4.78;;;;;;;20.97;44.02;100249.94;5089324;28;20746;-66
2022/11/18 08:16:55;;;;;;;5.82;4.60;;;;;;;20.98;44.09;100260.31;5087641;28;20104;-66
2022/11/18 08:19:20;;;;;;;6.57;4.50;;;;;;;20.97;44.12;100264.00;5084667;28;20051;-66
2022/11/18 08:21:46;;;;;;;5.88;4.47;;;;;;;20.98;44.06;100267.47;5092656;28;20454;-66
2022/11/18 08:24:11;;;;;;;6.03;4.47;;;;;;;20.97;44.04;100266.63;5082114;28;20043;-67
2022/11/18 08:26:37;;;;;;;8.25;4.47;;;;;;;20.97;44.05;100265.81;5089472;28;20521;-67
2022/11/18 08:29:03;;;;;;;7.82;4.53;;;;;;;20.98;44.20;100270.91;5088079;28;20040;-66
2022/11/18 08:31:29;;;;;;;6.85;4.72;;;;;;;20.98;44.07;100275.41;5095644;28;20035;-66
2022/11/18 08:34:00;;;;;;;6.40;4.60;;;;;;;20.99;43.91;100280.50;5087606;28;20146;-67
2022/11/18 08:36:29;;;;;;;6.13;4.25;;;;;;;20.99;44.24;100280.50;5083646;28;20045;-67
2022/11/18 08:38:55;;;;;;;7.03;4.32;;;;;;;20.95;44.14;100270.50;5096934;28;20063;-67
2022/11/18 08:41:30;;;;;;;7.15;4.70;;;;;;;20.96;44.26;100278.25;5090470;28;20740;-66
2022/11/18 08:43:56;;;;;;;8.25;4.50;;;;;;;20.96;44.24;100275.59;5091186;28;20044;-67
2022/11/18 08:46:21;;;;;;;6.05;4.60;;;;;;;20.96;44.09;100286.19;5091346;28;20043;-66
2022/11/18 08:48:47;;;;;;;7.18;4.40;;;;;;;20.98;43.89;100283.34;5090674;28;20805;-67
2022/11/18 08:51:14;;;;;;;8.23;5.20;;;;;;;20.99;43.91;100285.78;5095209;28;20040;-66
2022/11/18 08:53:40;;;;;;;7.53;5.00;;;;;;;20.97;43.95;100287.81;5093463;28;20047;-67
2022/11/18 08:56:06;;;;;;;6.05;4.50;;;;;;;20.97;44.10;100282.53;5085274;28;20040;-66
2022/11/18 08:58:31;;;;;;;7.43;4.55;;;;;;;20.98;43.76;100299.22;5086323;28;20547;-66
2022/11/18 09:00:57;;;;;;;8.40;4.78;;;;;;;20.90;44.25;100283.53;5087520;28;20043;-66
2022/11/18 09:03:22;;;;;;;6.65;4.60;;;;;;;20.95;43.84;100297.78;5087436;28;20081;-66
2022/11/18 09:05:48;;;;;;;6.93;4.63;;;;;;;20.97;43.87;100301.06;5085577;28;20150;-66
2022/11/18 09:08:14;;;;;;;6.82;4.38;;;;;;;20.97;43.78;100308.19;5088704;28;20838;-66
2022/11/18 09:10:41;;;;;;;7.75;4.82;;;;;;;20.96;43.83;100309.19;5089597;28;20115;-66
2022/11/18 09:13:07;;;;;;;6.40;4.72;;;;;;;20.94;43.95;100316.53;5095999;28;20110;-66
2022/11/18 09:15:32;;;;;;;7.30;4.75;;;;;;;20.96;43.98;100319.78;5098128;28;20040;-66
2022/11/18 09:17:58;;;;;;;6.38;4.43;;;;;;;20.92;44.02;100326.50;5099052;28;20521;-66
2022/11/18 09:20:24;;;;;;;7.32;4.70;;;;;;;20.94;44.10;100322.63;5094137;28;20074;-66
2022/11/18 09:22:49;;;;;;;7.45;4.35;;;;;;;20.96;44.05;100328.53;5087132;28;20075;-66
2022/11/18 09:25:15;;;;;;;5.93;4.22;;;;;;;20.92;43.87;100327.31;5088398;28;20036;-66
2022/11/18 09:27:40;;;;;;;5.97;4.00;;;;;;;20.96;43.72;100343.59;5090017;28;20800;-66
2022/11/18 09:30:07;;;;;;;6.22;4.80;;;;;;;20.92;43.88;100335.25;5090703;28;20045;-66
2022/11/18 09:32:32;;;;;;;7.05;4.72;;;;;;;20.91;43.94;100340.75;5086317;28;20031;-66
2022/11/18 09:34:58;;;;;;;14.93;5.30;;;;;;;20.85;43.94;100339.72;5088026;28;20038;-66
2022/11/18 09:37:23;;;;;;;8.23;4.60;;;;;;;20.94;43.61;100345.63;5029970;28;20061;-65
2022/11/18 09:39:49;;;;;;;8.45;4.60;;;;;;;21.00;43.35;100350.94;5087934;28;20032;-70
2022/11/18 09:42:53;;;;;;;7.38;5.13;;;;;;;21.04;43.55;100348.75;5091885;28;20035;-69
2022/11/18 09:45:23;;;;;;;7.45;4.88;;;;;;;21.10;43.42;100359.34;5088264;28;20047;-67
2022/11/18 09:47:49;;;;;;;9.75;5.32;;;;;;;21.12;43.23;100354.66;5092216;28;20095;-65
2022/11/18 09:50:18;;;;;;;7.47;4.75;;;;;;;21.00;44.10;100363.34;5091366;28;20339;-64
2022/11/18 09:53:19;;;;;;;6.70;4.28;;;;;;;20.99;44.00;100361.72;5061340;28;20117;-67
2022/11/18 09:55:46;;;;;;;7.38;4.30;;;;;;;20.98;44.22;100374.16;5091939;28;20035;-69
2022/11/18 09:58:30;;;;;;;6.90;4.07;;;;;;;20.99;43.98;100369.66;5085147;28;20050;-68
2022/11/18 10:00:55;;;;;;;6.20;4.32;;;;;;;20.99;44.09;100375.78;5084520;28;20046;-69
2022/11/18 10:03:30;;;;;;;5.90;4.47;;;;;;;20.97;44.16;100369.88;5085516;28;20075;-69
2022/11/18 10:06:10;;;;;;;7.57;4.53;;;;;;;20.98;43.88;100386.56;5083549;28;20036;-68
2022/11/18 10:08:43;;;;;;;7.25;4.78;;;;;;;20.98;44.09;100387.38;5071416;28;20046;-64
2022/11/18 10:11:09;;;;;;;6.55;4.70;;;;;;;21.00;43.84;100387.19;5092994;28;20032;-67
2022/11/18 10:14:15;;;;;;;6.65;4.35;;;;;;;20.99;44.00;100386.38;5090446;28;20640;-67
2022/11/18 10:17:05;;;;;;;7.80;5.22;;;;;;;21.00;43.78;100395.13;5087702;28;20638;-67
2022/11/18 10:19:41;;;;;;;7.03;4.80;;;;;;;21.15;43.74;100389.69;5089473;28;20065;-70
2022/11/18 10:22:14;;;;;;;12.15;4.72;;;;;;;21.27;43.26;100391.59;5093025;28;20474;-71
2022/11/18 10:24:49;;;;;;;7.35;4.60;;;;;;;21.32;43.17;100398.94;5074241;28;20039;-69
2022/11/18 10:27:15;;;;;;;9.10;4.72;;;;;;;21.18;43.43;100399.88;5078148;28;20433;-68
2022/11/18 10:29:42;;;;;;;7.25;4.32;;;;;;;21.17;43.85;100403.53;5092485;28;20035;-68
2022/11/18 10:32:12;;;;;;;7.20;4.80;;;;;;;21.09;43.98;100402.72;5094916;28;20084;-68
2022/11/18 10:34:52;;;;;;;7.55;4.25;;;;;;;21.12;43.69;100404.13;5090577;28;20027;-68
2022/11/18 10:37:21;;;;;;;;;;;;;;;21.12;43.65;100410.25;5085294;28;20135;-67
2022/11/18 10:39:55;;;;;;;7.20;4.72;;;;;;;21.09;43.87;100412.47;5089998;28;20032;-67
2022/11/18 10:42:47;;;;;;;6.97;4.60;;;;;;;21.05;43.76;100414.72;5066567;28;20031;-71
2022/11/18 10:45:21;;;;;;;8.90;5.28;;;;;;;21.09;43.69;100425.72;5079810;28;20051;-71
2022/11/18 10:48:15;;;;;;;6.78;4.53;;;;;;;21.10;43.68;100425.53;5091079;28;20048;-76
2022/11/18 10:50:46;;;;;;;5.57;4.22;;;;;;;21.07;43.76;100431.22;5085445;28;20050;-71
2022/11/18 10:53:34;;;;;;;6.63;4.30;;;;;;;21.08;43.96;100432.84;5093925;28;20044;-70
2022/11/18 10:56:02;;;;;;;7.35;4.60;;;;;;;21.06;43.65;100436.72;5093038;28;20050;-71
2022/11/18 10:58:29;;;;;;;7.20;4.47;;;;;;;21.09;43.61;100437.13;5068808;28;20076;-70
2022/11/18 11:01:04;;;;;;;7.82;4.47;;;;;;;21.10;43.85;100444.06;5095990;28;20039;-71
2022/11/18 11:03:37;;;;;;;8.52;5.03;;;;;;;21.09;43.69;100442.41;5095540;28;20792;-71
2022/11/18 11:06:22;;;;;;;8.70;4.80;;;;;;;21.10;43.81;100444.06;5108996;27;20035;-70
2022/11/18 11:08:53;;;;;;;8.18;4.70;;;;;;;21.09;43.67;100452.19;5089859;28;20050;-71
2022/11/18 11:11:29;;;;;;;5.40;4.18;;;;;;;21.10;43.62;100456.47;5090056;28;20065;-71
2022/11/18 11:14:10;;;;;;;9.07;4.95;;;;;;;21.09;43.67;100454.84;5079149;28;20047;-67
2022/11/18 11:16:44;;;;;;;8.70;4.78;;;;;;;21.11;43.63;100463.41;5080982;28;20042;-70
2022/11/18 11:19:12;;;;;;;7.30;4.70;;;;;;;21.11;43.40;100474.00;5089200;28;20044;-70
2022/11/18 11:21:37;;;;;;;8.20;4.97;;;;;;;21.09;43.73;100466.25;5096058;28;20040;-71
2022/11/18 11:24:11;;;;;;;9.75;5.13;;;;;;;21.08;43.35;100463.81;5086683;28;20046;-71
2022/11/18 11:27:02;;;;;;;7.82;5.07;;;;;;;21.07;43.76;100462.16;5111877;27;21661;-70
2022/11/18 11:29:52;;;;;;;6.30;4.30;;;;;;;21.10;43.47;100465.22;5090266;28;20134;-71
2022/11/18 11:32:52;;;;;;;9.70;5.15;;;;;;;21.10;43.59;100469.72;5073796;28;20038;-64
2022/11/18 11:35:23;;;;;;;9.50;5.15;;;;;;;21.08;43.52;100467.25;5091229;28;20108;-64
2022/11/18 11:37:57;;;;;;;8.35;5.22;;;;;;;21.10;43.73;100467.06;5091357;28;20042;-64
2022/11/18 11:40:38;;;;;;;8.25;4.47;;;;;;;21.15;43.41;100477.06;5098002;28;20028;-63
2022/11/18 11:43:25;;;;;;;8.40;5.20;;;;;;;21.11;43.40;100480.09;5090532;28;20028;-64
2022/11/18 11:46:22;;;;;;;7.65;4.95;;;;;;;21.10;43.63;100478.47;5089516;28;20024;-63
2022/11/18 11:48:59;;;;;;;8.13;5.28;;;;;;;21.11;43.65;100488.03;5068945;28;20071;-66
2022/11/18 11:51:28;;;;;;;8.30;5.43;;;;;;;21.11;43.81;100495.19;5088709;28;20118;-66
2022/11/18 11:54:22;;;;;;;8.85;4.75;;;;;;;21.13;43.48;100493.16;5091157;28;20059;-66
2022/11/18 11:56:54;;;;;;;8.32;5.60;;;;;;;21.12;43.46;100494.16;5096457;28;20055;-66